Portada
METAR-TAF:

METAR-TAF

Aeroports :

Racine, Wisconsin, Estats Units d'Amèrica

John H. Batten Airport

latitud: 42-45-31N, longitud: 087-49-04W, altitud: 205 m

Observació

L'informe es va fer fa 26 minuts, a les 01:53 UTC
Vent 19 kt del Sud amb ràfegues de 34 kt
Temperatura 1°C
Humitat 86%
Pressió 1013 hPa
Visibilitat: 12.9 km
Cel clar

METAR: KRAC 190153Z AUTO 17019G34KT 8SM CLR 01/M01 A2992 RMK AO2 PK WND 16034/0150 SLP138 T00111006

Hora: 20:19 (02:19 UTC)


TAF: manca

Observacions i pronòstics meteorològics de més de 4000 aeroports (METAR i TAF).

Les estacions disponibles són els punts grocs i vermells al mapa.

Posi el ratolí al punt desitjat per veure el nom de l'estació.

Feu clic per veure les observacions i els pronòstics meteorològics.

Per canviar el mapa: feu clic els botons verds amb una creu de color negre per apropar; al botó verd amb un guió per allunyar la imatge; o en les fletxes verdes per a mapes adjacents.


METAR-TAF: